Terminal Aerodrome Forecast
Issued by NWS

Home | Current Version | Previous Version | Text Only | Print | Product List | Glossary On
Versions: 1 2 3 4 5 6 7 8 9 10 11 12 13 14
000
FTUS43 KLSX 050839 AAA
TAFCPS
TAF AMD
KCPS 050839Z 0509/0606 06007KT P6SM OVC080
     FM051100 09006KT P6SM VCSH OVC050
     FM051300 10006KT 6SM -SHRA OVC040
     FM051900 12005KT P6SM BKN030
     FM052300 11004KT 6SM SHRA VCTS OVC030CB=

USA.gov is the U.S. government's official web portal to all federal, state and local government web resources and services.